Time;durP1;ratioP1;P1;durP2;ratioP2;P2;SDS_P1;SDS_P2;PMS_P1;PMS_P2;Temp;Humidity;BMP_temperature;BMP_pressure;BME280_temperature;BME280_humidity;BME280_pressure;Samples;Min_cycle;Max_cycle;Signal;HPM_P1;HPM_P2
2023/09/25 00:00:20;;;;;;;0.93;0.90;;;12.40;99.90;;;;;;5050610;28;20232;-55
2023/09/25 00:02:48;;;;;;;1.85;0.70;;;12.40;99.90;;;;;;5051104;28;20209;-56
2023/09/25 00:05:17;;;;;;;0.63;0.60;;;12.40;99.90;;;;;;5050901;28;20206;-55
2023/09/25 00:07:45;;;;;;;1.17;0.95;;;12.40;99.90;;;;;;5051201;28;20225;-56
2023/09/25 00:10:13;;;;;;;1.83;1.00;;;12.40;99.90;;;;;;5050511;28;20294;-56
2023/09/25 00:12:41;;;;;;;3.15;0.80;;;12.40;99.90;;;;;;5051028;28;20206;-56
2023/09/25 00:15:11;;;;;;;0.70;0.70;;;12.40;99.90;;;;;;5050615;28;20233;-57
2023/09/25 00:17:40;;;;;;;1.90;1.02;;;12.40;99.90;;;;;;5051100;28;20205;-57
2023/09/25 00:20:10;;;;;;;1.30;0.85;;;12.40;99.90;;;;;;5050552;28;20206;-56
2023/09/25 00:22:38;;;;;;;0.60;0.60;;;12.30;99.90;;;;;;5050908;28;20206;-56
2023/09/25 00:25:07;;;;;;;2.08;0.80;;;12.40;99.90;;;;;;5050792;28;20194;-56
2023/09/25 00:27:35;;;;;;;0.90;0.90;;;12.30;99.90;;;;;;5050708;28;20251;-57
2023/09/25 00:30:06;;;;;;;1.00;1.00;;;12.30;99.90;;;;;;5050500;28;20255;-56
2023/09/25 00:32:35;;;;;;;0.90;0.90;;;12.30;99.90;;;;;;5050890;28;20220;-57
2023/09/25 00:35:05;;;;;;;0.85;0.80;;;12.20;99.90;;;;;;5050585;28;20607;-56
2023/09/25 00:37:33;;;;;;;3.88;0.90;;;12.20;99.90;;;;;;5050735;28;20233;-56
2023/09/25 00:40:07;;;;;;;1.80;0.70;;;12.20;99.90;;;;;;5050147;28;20241;-56
2023/09/25 00:42:35;;;;;;;2.10;1.00;;;12.10;99.90;;;;;;5043823;28;20569;-57
2023/09/25 00:45:03;;;;;;;3.33;1.00;;;12.10;99.90;;;;;;5054231;28;20198;-56
2023/09/25 00:47:31;;;;;;;4.20;0.98;;;12.10;99.90;;;;;;5054820;28;20292;-56
2023/09/25 00:50:02;;;;;;;0.70;0.70;;;12.00;99.90;;;;;;5054234;28;20206;-57
2023/09/25 00:52:31;;;;;;;1.48;0.82;;;12.00;99.90;;;;;;5050756;28;20206;-56
2023/09/25 00:54:59;;;;;;;3.03;0.90;;;12.00;99.90;;;;;;5050508;28;20818;-57
2023/09/25 00:57:27;;;;;;;1.27;1.00;;;12.00;99.90;;;;;;5054530;28;20201;-55
2023/09/25 00:59:55;;;;;;;2.83;1.15;;;11.90;99.90;;;;;;5054143;28;20244;-56
2023/09/25 01:02:23;;;;;;;3.20;1.20;;;11.90;99.90;;;;;;5054258;28;20310;-57
2023/09/25 01:04:51;;;;;;;1.55;0.80;;;11.90;99.90;;;;;;5054231;28;20261;-57
2023/09/25 01:07:20;;;;;;;1.67;1.20;;;11.80;99.90;;;;;;5054251;28;20206;-57
2023/09/25 01:10:03;;;;;;;1.00;0.90;;;11.70;99.90;;;;;;5053897;28;20205;-56
2023/09/25 01:12:32;;;;;;;1.48;1.02;;;11.70;99.90;;;;;;5046296;28;20259;-56
2023/09/25 01:15:00;;;;;;;1.10;0.93;;;11.70;99.90;;;;;;5054109;28;20202;-57
2023/09/25 01:17:29;;;;;;;1.65;0.90;;;11.60;99.90;;;;;;5053865;28;20256;-57
2023/09/25 01:19:56;;;;;;;4.63;1.10;;;11.60;99.90;;;;;;5054087;28;20206;-56
2023/09/25 01:22:26;;;;;;;4.15;1.20;;;11.60;99.90;;;;;;5053701;28;20675;-57
2023/09/25 01:24:54;;;;;;;1.10;0.98;;;11.50;99.90;;;;;;5047257;28;20226;-57
2023/09/25 01:27:22;;;;;;;1.40;1.10;;;11.50;99.90;;;;;;5052941;28;20660;-56
2023/09/25 01:29:50;;;;;;;2.35;1.02;;;11.50;99.90;;;;;;5049408;28;20206;-56
2023/09/25 01:32:18;;;;;;;1.60;1.00;;;11.50;99.90;;;;;;5052082;28;20210;-56
2023/09/25 01:34:46;;;;;;;2.83;0.73;;;11.50;99.90;;;;;;5053698;28;20648;-56
2023/09/25 01:37:14;;;;;;;1.42;0.93;;;11.40;99.90;;;;;;5053657;28;20313;-56
2023/09/25 01:39:43;;;;;;;1.02;1.00;;;11.40;99.90;;;;;;5053257;28;20284;-57
2023/09/25 01:42:11;;;;;;;3.03;0.93;;;11.40;99.90;;;;;;5053636;28;20227;-56
2023/09/25 01:44:39;;;;;;;1.67;1.00;;;11.40;99.90;;;;;;5053413;28;20202;-57
2023/09/25 01:47:07;;;;;;;1.23;1.13;;;11.40;99.90;;;;;;5053696;28;20226;-55
2023/09/25 01:49:35;;;;;;;1.58;1.00;;;11.40;99.90;;;;;;5049970;28;20276;-56
2023/09/25 01:52:07;;;;;;;5.18;1.20;;;11.30;99.90;;;;;;5049336;28;20221;-56
2023/09/25 01:54:35;;;;;;;1.77;0.90;;;11.30;99.90;;;;;;5045167;28;20260;-56
2023/09/25 01:57:04;;;;;;;1.92;1.40;;;11.30;99.90;;;;;;5053217;28;20232;-56
2023/09/25 01:59:32;;;;;;;1.65;1.13;;;11.30;99.90;;;;;;5045336;28;20225;-57
2023/09/25 02:02:00;;;;;;;1.70;1.15;;;11.20;99.90;;;;;;5052118;28;20268;-56
2023/09/25 02:04:28;;;;;;;2.42;1.17;;;11.20;99.90;;;;;;5053223;28;20237;-57
2023/09/25 02:06:56;;;;;;;1.77;1.20;;;11.20;99.90;;;;;;5052886;28;20202;-57
2023/09/25 02:09:24;;;;;;;3.63;1.58;;;11.20;99.90;;;;;;5053137;28;20287;-57
2023/09/25 02:11:52;;;;;;;2.53;1.38;;;11.10;99.90;;;;;;5053086;28;20206;-56
2023/09/25 02:14:21;;;;;;;3.92;1.30;;;11.10;99.90;;;;;;5053116;28;20260;-56
2023/09/25 02:16:51;;;;;;;2.75;1.40;;;11.10;99.90;;;;;;5052668;28;20307;-55
2023/09/25 02:19:19;;;;;;;1.40;1.30;;;11.00;99.90;;;;;;5052652;28;20257;-56
2023/09/25 02:21:47;;;;;;;2.30;1.10;;;11.00;99.90;;;;;;5052880;28;20237;-57
2023/09/25 02:24:15;;;;;;;2.13;1.27;;;11.00;99.90;;;;;;5052682;28;20699;-57
2023/09/25 02:26:43;;;;;;;1.20;1.10;;;10.90;99.90;;;;;;5052910;28;20213;-57
2023/09/25 02:29:11;;;;;;;1.70;1.30;;;10.90;99.90;;;;;;5052379;28;20308;-57
2023/09/25 02:31:40;;;;;;;1.52;1.35;;;10.90;99.90;;;;;;5052450;28;20202;-56
2023/09/25 02:34:14;;;;;;;2.13;1.23;;;10.90;99.90;;;;;;5052741;28;20228;-57
2023/09/25 02:36:42;;;;;;;1.67;1.40;;;10.90;99.90;;;;;;5052703;28;20256;-57
2023/09/25 02:39:10;;;;;;;1.42;1.25;;;10.80;99.90;;;;;;5052513;28;20234;-56
2023/09/25 02:41:38;;;;;;;1.77;1.00;;;10.80;99.90;;;;;;5052511;28;20245;-57
2023/09/25 02:44:06;;;;;;;1.38;1.25;;;10.80;99.90;;;;;;5052490;28;20683;-56
2023/09/25 02:46:34;;;;;;;1.20;1.10;;;10.80;99.90;;;;;;5052259;28;20642;-56
2023/09/25 02:49:04;;;;;;;2.97;1.40;;;10.70;99.90;;;;;;5052468;28;20279;-57
2023/09/25 02:51:32;;;;;;;1.02;1.02;;;10.70;99.90;;;;;;5052018;28;20672;-57
2023/09/25 02:54:00;;;;;;;2.83;1.55;;;10.80;99.90;;;;;;5044347;28;20210;-56
2023/09/25 02:56:28;;;;;;;1.52;1.42;;;10.70;99.90;;;;;;5052113;28;20321;-58
2023/09/25 02:58:56;;;;;;;2.13;1.52;;;10.70;99.90;;;;;;5051917;28;20249;-56
2023/09/25 03:01:24;;;;;;;1.30;1.27;;;10.60;99.90;;;;;;5052190;28;20233;-57
2023/09/25 03:03:52;;;;;;;2.15;1.58;;;10.60;99.90;;;;;;5052507;28;20202;-57
2023/09/25 03:06:21;;;;;;;1.45;1.35;;;10.60;99.90;;;;;;5051542;28;20731;-57
2023/09/25 03:08:49;;;;;;;1.48;1.20;;;10.60;99.90;;;;;;5051770;28;20257;-56
2023/09/25 03:11:17;;;;;;;1.50;1.27;;;10.60;99.90;;;;;;5051537;28;20214;-57
2023/09/25 03:13:45;;;;;;;1.35;1.25;;;10.60;99.90;;;;;;5052022;28;20285;-56
2023/09/25 03:16:14;;;;;;;1.17;1.17;;;10.60;99.90;;;;;;5051531;28;20210;-56
2023/09/25 03:18:42;;;;;;;3.30;1.35;;;10.50;99.90;;;;;;5051869;28;20218;-56
2023/09/25 03:21:11;;;;;;;1.60;1.50;;;10.60;99.90;;;;;;5051643;28;20220;-57
2023/09/25 03:23:40;;;;;;;2.72;1.80;;;10.60;99.90;;;;;;5052079;28;20206;-57
2023/09/25 03:26:15;;;;;;;1.70;1.60;;;10.60;99.90;;;;;;5051296;28;20648;-57
2023/09/25 03:28:43;;;;;;;2.22;1.65;;;10.60;99.90;;;;;;5051439;28;20738;-57
2023/09/25 03:31:11;;;;;;;1.75;1.52;;;10.60;99.90;;;;;;5051051;28;20210;-57
2023/09/25 03:33:39;;;;;;;2.70;1.58;;;10.60;99.90;;;;;;5051894;28;20214;-58
2023/09/25 03:36:08;;;;;;;5.28;1.80;;;10.50;99.90;;;;;;5051339;28;20202;-57
2023/09/25 03:38:37;;;;;;;1.67;1.25;;;10.50;99.90;;;;;;5051054;28;20350;-57
2023/09/25 03:41:07;;;;;;;2.92;1.55;;;10.50;99.90;;;;;;5051099;28;20205;-56
2023/09/25 03:43:35;;;;;;;2.13;1.40;;;10.50;99.90;;;;;;5051647;28;20246;-57
2023/09/25 03:46:03;;;;;;;1.67;1.45;;;10.50;99.90;;;;;;5051163;28;20198;-56
2023/09/25 03:48:31;;;;;;;1.45;1.45;;;10.50;99.90;;;;;;5047651;28;20253;-57
2023/09/25 03:50:59;;;;;;;2.53;1.75;;;10.50;99.90;;;;;;5037450;28;20209;-57
2023/09/25 03:53:27;;;;;;;1.88;1.63;;;10.40;99.90;;;;;;5039338;28;20218;-58
2023/09/25 03:55:55;;;;;;;1.50;1.40;;;10.40;99.90;;;;;;5045080;28;20249;-57
2023/09/25 03:58:24;;;;;;;1.92;1.33;;;10.40;99.90;;;;;;5032530;28;20235;-57
2023/09/25 04:00:52;;;;;;;2.85;1.67;;;10.40;99.90;;;;;;5044761;28;20726;-57
2023/09/25 04:03:20;;;;;;;2.67;1.58;;;10.30;99.90;;;;;;5051244;28;20212;-58
2023/09/25 04:05:48;;;;;;;3.40;1.33;;;10.30;99.90;;;;;;5050785;28;20815;-58
2023/09/25 04:08:16;;;;;;;2.47;1.58;;;10.30;99.90;;;;;;5033838;28;20325;-58
2023/09/25 04:10:44;;;;;;;1.38;1.38;;;10.30;99.90;;;;;;5043577;28;20206;-57
2023/09/25 04:13:12;;;;;;;2.67;1.75;;;10.30;99.90;;;;;;5051418;28;20297;-58
2023/09/25 04:15:41;;;;;;;1.45;1.40;;;10.30;99.90;;;;;;5050875;28;20216;-58
2023/09/25 04:18:09;;;;;;;1.70;1.60;;;10.30;99.90;;;;;;5048830;28;20225;-57
2023/09/25 04:20:38;;;;;;;1.83;1.73;;;10.30;99.90;;;;;;5039411;28;20210;-57
2023/09/25 04:23:06;;;;;;;1.83;1.73;;;10.30;99.90;;;;;;5046703;28;20202;-57
2023/09/25 04:25:35;;;;;;;2.75;1.30;;;10.30;99.90;;;;;;5049953;28;20654;-57
2023/09/25 04:28:03;;;;;;;1.80;1.70;;;10.20;99.90;;;;;;5049853;28;20222;-58
2023/09/25 04:30:31;;;;;;;1.30;1.20;;;10.20;99.90;;;;;;5038626;28;20287;-57
2023/09/25 04:33:00;;;;;;;2.67;1.90;;;10.40;99.90;;;;;;5035342;28;20555;-57
2023/09/25 04:35:28;;;;;;;1.98;1.88;;;10.80;99.90;;;;;;5042119;28;20198;-58
2023/09/25 04:37:56;;;;;;;4.28;1.85;;;10.90;99.90;;;;;;5039150;28;20258;-57
2023/09/25 04:40:30;;;;;;;2.80;1.65;;;10.80;99.90;;;;;;5040059;28;20976;-56
2023/09/25 04:42:59;;;;;;;1.70;1.60;;;10.70;99.90;;;;;;5030845;28;20203;-57
2023/09/25 04:45:29;;;;;;;3.38;1.85;;;10.60;99.90;;;;;;5036497;28;20217;-56
2023/09/25 04:47:58;;;;;;;4.65;2.40;;;10.50;99.90;;;;;;5040432;28;20272;-57
2023/09/25 04:50:27;;;;;;;2.28;2.08;;;10.40;99.90;;;;;;5049567;28;20710;-57
2023/09/25 04:52:55;;;;;;;2.65;1.65;;;10.40;99.90;;;;;;5044083;28;20214;-57
2023/09/25 04:55:23;;;;;;;2.15;2.00;;;10.30;99.90;;;;;;5047613;28;20241;-57
2023/09/25 04:57:51;;;;;;;2.00;1.90;;;10.30;99.90;;;;;;5050399;28;20221;-56
2023/09/25 05:00:21;;;;;;;2.33;2.20;;;10.20;99.90;;;;;;5050309;28;20288;-55
2023/09/25 05:02:50;;;;;;;2.15;2.05;;;10.20;99.90;;;;;;5050812;28;20675;-56
2023/09/25 05:05:18;;;;;;;1.92;1.73;;;10.10;99.90;;;;;;5050432;28;20653;-56
2023/09/25 05:07:48;;;;;;;4.00;1.65;;;10.10;99.90;;;;;;5050643;28;20932;-57
2023/09/25 05:10:17;;;;;;;2.08;1.90;;;10.10;99.90;;;;;;5050044;28;20248;-56
2023/09/25 05:12:45;;;;;;;2.05;1.92;;;10.10;99.90;;;;;;5050791;28;20260;-56
2023/09/25 05:15:13;;;;;;;3.33;1.90;;;10.10;99.90;;;;;;5050693;28;20212;-56
2023/09/25 05:17:41;;;;;;;2.80;1.90;;;10.10;99.90;;;;;;5050109;28;20232;-58
2023/09/25 05:20:11;;;;;;;4.50;2.35;;;10.10;99.90;;;;;;5040662;28;20211;-57
2023/09/25 05:22:40;;;;;;;2.40;1.98;;;10.10;99.90;;;;;;5038015;28;20210;-56
2023/09/25 05:25:10;;;;;;;1.98;1.67;;;10.10;99.90;;;;;;5045047;28;20207;-57
2023/09/25 05:27:39;;;;;;;5.22;2.13;;;10.10;99.90;;;;;;5049965;28;20562;-55
2023/09/25 05:30:09;;;;;;;3.30;1.83;;;10.10;99.90;;;;;;5050106;28;20266;-60
2023/09/25 05:32:37;;;;;;;2.83;1.92;;;10.10;99.90;;;;;;5051065;28;20637;-60
2023/09/25 05:35:06;;;;;;;2.03;1.92;;;10.10;99.90;;;;;;5040687;28;20287;-59
2023/09/25 05:37:34;;;;;;;3.45;2.20;;;10.10;99.90;;;;;;5053795;28;20237;-59
2023/09/25 05:40:02;;;;;;;2.30;2.08;;;10.10;99.90;;;;;;5053845;28;20198;-59
2023/09/25 05:42:31;;;;;;;5.13;2.33;;;10.10;99.90;;;;;;5053725;28;20210;-59
2023/09/25 05:45:00;;;;;;;2.33;2.00;;;10.10;99.90;;;;;;5053401;28;20586;-59
2023/09/25 05:47:28;;;;;;;1.90;1.77;;;10.10;99.90;;;;;;5053420;28;20213;-59
2023/09/25 05:49:56;;;;;;;2.03;1.92;;;10.10;99.90;;;;;;5048260;28;20209;-59
2023/09/25 05:52:24;;;;;;;1.88;1.77;;;10.10;99.90;;;;;;5050111;28;20268;-59
2023/09/25 05:54:52;;;;;;;2.67;2.05;;;10.10;99.90;;;;;;5046133;28;20242;-58
2023/09/25 05:57:20;;;;;;;3.80;2.13;;;10.10;99.90;;;;;;5053051;28;20585;-59
2023/09/25 05:59:49;;;;;;;2.28;2.10;;;10.20;99.90;;;;;;5052831;28;20226;-59
2023/09/25 06:02:17;;;;;;;2.50;2.22;;;10.20;99.90;;;;;;5052940;28;20248;-59
2023/09/25 06:04:46;;;;;;;2.05;1.95;;;10.20;99.90;;;;;;5053268;28;20581;-59
2023/09/25 06:07:14;;;;;;;3.15;2.13;;;10.30;99.90;;;;;;5052904;28;20571;-59
2023/09/25 06:09:43;;;;;;;2.83;1.98;;;10.30;99.90;;;;;;5052454;28;20245;-59
2023/09/25 06:12:13;;;;;;;2.60;2.22;;;10.40;99.90;;;;;;5042897;28;20297;-59
2023/09/25 06:14:41;;;;;;;2.13;1.90;;;10.40;99.90;;;;;;5042843;28;20210;-59
2023/09/25 06:17:11;;;;;;;5.03;1.90;;;10.40;99.90;;;;;;5040065;28;20703;-61
2023/09/25 06:19:39;;;;;;;2.80;2.25;;;10.50;99.90;;;;;;5034055;28;20342;-59
2023/09/25 06:22:07;;;;;;;1.88;1.83;;;10.50;99.90;;;;;;5041895;28;20244;-59
2023/09/25 06:24:35;;;;;;;4.43;2.17;;;10.60;99.90;;;;;;5042177;28;20198;-59
2023/09/25 06:27:03;;;;;;;3.40;2.30;;;10.70;99.90;;;;;;5033137;28;20210;-58
2023/09/25 06:29:31;;;;;;;3.40;2.15;;;10.70;99.90;;;;;;5048729;28;20264;-61
2023/09/25 06:31:59;;;;;;;3.90;2.00;;;10.80;99.90;;;;;;5047271;28;20214;-60
2023/09/25 06:34:31;;;;;;;2.75;1.95;;;10.90;99.90;;;;;;5040966;28;20206;-59
2023/09/25 06:36:59;;;;;;;3.33;2.20;;;11.00;99.90;;;;;;5037862;28;20194;-60
2023/09/25 06:39:27;;;;;;;2.80;1.98;;;11.00;99.90;;;;;;5043577;28;20265;-60
2023/09/25 06:41:55;;;;;;;1.83;1.73;;;11.10;99.90;;;;;;5039082;28;20256;-59
2023/09/25 06:44:23;;;;;;;2.25;2.15;;;11.10;99.90;;;;;;5033029;28;20260;-59
2023/09/25 06:46:51;;;;;;;3.17;2.20;;;11.20;99.90;;;;;;5032824;28;20202;-60
2023/09/25 06:49:19;;;;;;;2.25;2.05;;;11.30;99.90;;;;;;5040619;28;20225;-60
2023/09/25 06:51:48;;;;;;;1.95;1.85;;;11.40;99.90;;;;;;5052034;28;20240;-60
2023/09/25 06:54:17;;;;;;;2.72;2.30;;;11.50;99.90;;;;;;5044142;28;20289;-58
2023/09/25 06:56:45;;;;;;;3.15;2.20;;;11.60;99.90;;;;;;5043943;28;20202;-60
2023/09/25 06:59:13;;;;;;;2.10;2.00;;;11.70;99.90;;;;;;5043755;28;20670;-59
2023/09/25 07:01:41;;;;;;;1.80;1.70;;;11.80;99.90;;;;;;5035837;28;20199;-60
2023/09/25 07:04:09;;;;;;;2.05;1.85;;;11.90;99.90;;;;;;5052417;28;20293;-60
2023/09/25 07:06:37;;;;;;;2.35;2.15;;;12.00;99.90;;;;;;5043605;28;20721;-60
2023/09/25 07:09:09;;;;;;;2.67;2.03;;;12.10;99.90;;;;;;5051704;28;20225;-59
2023/09/25 07:11:37;;;;;;;3.40;1.98;;;12.20;99.90;;;;;;5051933;28;20210;-59
2023/09/25 07:14:05;;;;;;;2.20;2.00;;;12.30;99.90;;;;;;5052126;28;20206;-59
2023/09/25 07:16:35;;;;;;;2.47;1.88;;;12.40;99.90;;;;;;5051231;28;20284;-59
2023/09/25 07:19:03;;;;;;;2.03;1.92;;;12.60;99.90;;;;;;5051598;28;20230;-60
2023/09/25 07:21:31;;;;;;;1.90;1.70;;;12.70;99.90;;;;;;5051149;28;20289;-60
2023/09/25 07:23:59;;;;;;;5.30;1.92;;;12.80;99.90;;;;;;5052099;28;20210;-60
2023/09/25 07:26:28;;;;;;;3.65;1.90;;;12.90;99.90;;;;;;5043045;28;20234;-60
2023/09/25 07:28:56;;;;;;;3.22;1.63;;;13.00;99.90;;;;;;5035826;28;20297;-60
2023/09/25 07:31:24;;;;;;;2.25;1.67;;;13.10;99.90;;;;;;5051243;28;20217;-60
2023/09/25 07:33:55;;;;;;;1.83;1.73;;;13.20;99.90;;;;;;5043445;28;20924;-60
2023/09/25 07:36:24;;;;;;;4.07;1.65;;;13.30;99.90;;;;;;5042283;28;20675;-60
2023/09/25 07:38:52;;;;;;;4.18;2.30;;;13.40;99.90;;;;;;5050454;28;20229;-60
2023/09/25 07:41:20;;;;;;;1.52;1.45;;;13.50;99.90;;;;;;5051615;28;20275;-60
2023/09/25 07:43:49;;;;;;;1.70;1.67;;;13.60;99.90;;;;;;5051541;28;20225;-60
2023/09/25 07:46:25;;;;;;;2.53;1.58;;;13.70;99.90;;;;;;5043004;28;20237;-60
2023/09/25 07:48:54;;;;;;;2.03;1.45;;;13.90;99.90;;;;;;5035434;28;20272;-60
2023/09/25 07:51:24;;;;;;;4.05;1.50;;;14.00;99.90;;;;;;5051274;28;20267;-60
2023/09/25 07:53:58;;;;;;;1.98;1.30;;;14.00;99.90;;;;;;5042769;28;20234;-60
2023/09/25 07:56:26;;;;;;;1.95;1.42;;;14.10;99.90;;;;;;5045369;28;20206;-62
2023/09/25 07:58:56;;;;;;;1.92;1.35;;;14.20;99.90;;;;;;5042787;28;20233;-60
2023/09/25 08:01:29;;;;;;;2.30;2.08;;;14.20;99.90;;;;;;5051033;28;20209;-61
2023/09/25 08:03:57;;;;;;;3.45;1.70;;;14.30;99.90;;;;;;5042949;28;20292;-60
2023/09/25 08:06:27;;;;;;;3.65;1.80;;;14.40;99.90;;;;;;5051412;28;20202;-60
2023/09/25 08:08:57;;;;;;;3.35;1.65;;;14.50;99.90;;;;;;5042732;28;20230;-61
2023/09/25 08:11:25;;;;;;;1.55;1.45;;;14.60;99.90;;;;;;5040231;28;20256;-59
2023/09/25 08:13:54;;;;;;;3.08;1.45;;;14.70;99.90;;;;;;5041468;28;20241;-60
2023/09/25 08:16:23;;;;;;;1.88;1.70;;;14.80;99.90;;;;;;5043257;28;20253;-59
2023/09/25 08:18:51;;;;;;;1.85;1.75;;;14.90;99.90;;;;;;5050477;28;20312;-60
2023/09/25 08:21:20;;;;;;;1.65;1.55;;;14.90;99.90;;;;;;5042479;28;20233;-60
2023/09/25 08:23:48;;;;;;;5.07;1.73;;;14.90;99.90;;;;;;5050900;28;20691;-59
2023/09/25 08:26:16;;;;;;;3.13;1.80;;;15.00;99.90;;;;;;5050487;28;20210;-60
2023/09/25 08:28:47;;;;;;;1.98;1.50;;;15.10;99.90;;;;;;5050197;28;20222;-60
2023/09/25 08:31:17;;;;;;;1.27;1.23;;;15.10;99.90;;;;;;5036071;28;20621;-61
2023/09/25 08:33:45;;;;;;;2.03;1.60;;;15.20;99.90;;;;;;5049589;28;20244;-61
2023/09/25 08:36:13;;;;;;;1.27;1.17;;;15.30;99.90;;;;;;5050491;28;20652;-60
2023/09/25 08:38:41;;;;;;;3.22;1.38;;;15.50;99.90;;;;;;5050157;28;20252;-61
2023/09/25 08:41:09;;;;;;;3.70;1.20;;;15.60;99.90;;;;;;5050657;28;20310;-61
2023/09/25 08:43:37;;;;;;;4.40;1.38;;;15.80;99.90;;;;;;5038931;28;20210;-61
2023/09/25 08:46:05;;;;;;;3.97;1.00;;;15.90;99.90;;;;;;5045535;28;20202;-61
2023/09/25 08:48:34;;;;;;;2.08;1.27;;;16.10;99.90;;;;;;5046804;28;20225;-61
2023/09/25 08:51:03;;;;;;;2.28;1.10;;;16.20;99.90;;;;;;5042414;28;20194;-61
2023/09/25 08:53:33;;;;;;;1.75;1.23;;;16.30;99.90;;;;;;5041449;28;20280;-61
2023/09/25 08:56:01;;;;;;;1.40;1.30;;;16.50;99.90;;;;;;5050553;28;20206;-61
2023/09/25 08:58:29;;;;;;;1.73;1.35;;;16.60;99.90;;;;;;5050391;28;20310;-61
2023/09/25 09:00:58;;;;;;;1.23;1.23;;;16.80;99.90;;;;;;5050507;28;20222;-61
2023/09/25 09:03:27;;;;;;;1.05;1.00;;;16.90;99.90;;;;;;5050647;28;20212;-61
2023/09/25 09:06:00;;;;;;;1.63;1.23;;;17.10;99.90;;;;;;5053750;28;20733;-62
2023/09/25 09:08:29;;;;;;;1.40;1.30;;;17.30;99.90;;;;;;5054259;28;20313;-62
2023/09/25 09:10:57;;;;;;;2.80;1.20;;;17.50;99.90;;;;;;5054383;28;20281;-62
2023/09/25 09:13:25;;;;;;;2.35;1.27;;;17.60;99.90;;;;;;5054670;28;20205;-61
2023/09/25 09:15:53;;;;;;;2.28;1.10;;;17.70;99.90;;;;;;5045786;28;20287;-61
2023/09/25 09:18:21;;;;;;;1.20;1.10;;;17.80;99.90;;;;;;5053924;28;20283;-61
2023/09/25 09:20:54;;;;;;;2.15;1.13;;;18.00;99.90;;;;;;5045610;28;20253;-61
2023/09/25 09:23:38;;;;;;;1.48;1.38;;;18.30;99.90;;;;;;5047179;28;20213;-61
2023/09/25 09:26:07;;;;;;;4.75;0.90;;;18.50;99.90;;;;;;5047220;28;20202;-61
2023/09/25 09:28:35;;;;;;;1.48;0.98;;;18.80;99.90;;;;;;5045257;28;20233;-61
2023/09/25 09:31:05;;;;;;;1.13;1.00;;;19.10;99.90;;;;;;5049447;28;20202;-62
2023/09/25 09:33:33;;;;;;;1.83;1.20;;;19.30;99.90;;;;;;5035780;28;20301;-62
2023/09/25 09:36:01;;;;;;;1.13;1.00;;;19.50;99.90;;;;;;5046244;28;20210;-62
2023/09/25 09:38:29;;;;;;;2.83;0.93;;;19.80;99.90;;;;;;5045300;28;20745;-62
2023/09/25 09:40:58;;;;;;;0.88;0.88;;;20.00;99.90;;;;;;5053248;28;20309;-62
2023/09/25 09:43:27;;;;;;;2.15;1.23;;;20.30;99.90;;;;;;5053519;28;20260;-63
2023/09/25 09:45:55;;;;;;;9.90;1.50;;;20.60;99.90;;;;;;5053356;28;20887;-62
2023/09/25 09:48:23;;;;;;;2.53;1.40;;;20.90;99.90;;;;;;5053532;28;20225;-62
2023/09/25 09:50:52;;;;;;;2.05;0.93;;;21.10;99.90;;;;;;5045083;28;20202;-62
2023/09/25 09:53:20;;;;;;;2.67;1.50;;;21.40;99.90;;;;;;5047064;28;20280;-62
2023/09/25 09:55:49;;;;;;;3.90;1.10;;;21.60;99.90;;;;;;5043889;28;20229;-62
2023/09/25 09:58:19;;;;;;;2.35;1.30;;;21.90;99.90;;;;;;5053693;28;20279;-62
2023/09/25 10:00:47;;;;;;;1.17;0.88;;;22.10;99.90;;;;;;5042499;28;20258;-62
2023/09/25 10:03:15;;;;;;;3.22;1.40;;;22.20;99.90;;;;;;5047918;28;20202;-62
2023/09/25 10:05:46;;;;;;;1.70;1.00;;;22.30;99.90;;;;;;5053009;28;20255;-62
2023/09/25 10:08:13;;;;;;;4.07;1.33;;;22.50;99.90;;;;;;5052890;28;20694;-62
2023/09/25 10:10:43;;;;;;;1.38;1.00;;;22.80;99.90;;;;;;5053166;28;20274;-62
2023/09/25 10:13:14;;;;;;;1.50;1.10;;;23.00;99.90;;;;;;5053681;28;20205;-62
2023/09/25 10:15:55;;;;;;;1.10;1.05;;;23.30;99.90;;;;;;5052518;28;20252;-62
2023/09/25 10:18:26;;;;;;;1.08;0.90;;;23.30;99.90;;;;;;5044827;28;20320;-62
2023/09/25 10:21:08;;;;;;;1.85;1.30;;;23.50;99.90;;;;;;5052931;28;20234;-62
2023/09/25 10:23:37;;;;;;;1.48;1.38;;;23.80;99.90;;;;;;5045166;28;20216;-62
2023/09/25 10:26:05;;;;;;;2.00;1.08;;;24.00;99.90;;;;;;5053187;28;20237;-62
2023/09/25 10:28:34;;;;;;;2.05;0.90;;;24.10;99.90;;;;;;5052908;28;20295;-62
2023/09/25 10:31:05;;;;;;;1.42;1.27;;;24.40;99.90;;;;;;5036633;28;20229;-62
2023/09/25 10:33:35;;;;;;;1.13;1.08;;;24.70;99.90;;;;;;5053049;28;20658;-62
2023/09/25 10:36:04;;;;;;;2.72;1.42;;;25.00;99.90;;;;;;5044972;28;20679;-63
2023/09/25 10:38:34;;;;;;;2.58;1.05;;;25.20;99.90;;;;;;5058196;23;20259;-77
2023/09/25 10:41:03;;;;;;;1.90;1.05;;;25.40;99.90;;;;;;5017267;28;20218;-77
2023/09/25 10:43:31;;;;;;;1.70;1.00;;;25.50;99.90;;;;;;5033039;28;20213;-77
2023/09/25 10:45:59;;;;;;;2.53;1.00;;;25.50;99.90;;;;;;5024882;28;20250;-77
2023/09/25 10:48:28;;;;;;;2.92;1.15;;;25.70;99.90;;;;;;5032987;28;20206;-77
2023/09/25 10:50:57;;;;;;;1.75;1.20;;;26.00;99.90;;;;;;5032719;28;20236;-77
2023/09/25 10:53:26;;;;;;;2.10;1.50;;;26.20;99.90;;;;;;5022518;28;20201;-76
2023/09/25 10:55:54;;;;;;;1.35;1.30;;;26.40;99.90;;;;;;5032085;28;20317;-77
2023/09/25 10:58:22;;;;;;;1.67;1.27;;;26.50;99.90;;;;;;5030064;28;20649;-76
2023/09/25 11:00:50;;;;;;;1.50;1.40;;;26.60;99.90;;;;;;5025963;28;20771;-77
2023/09/25 11:03:19;;;;;;;2.45;1.20;;;26.50;99.90;;;;;;5033288;28;20218;-77
2023/09/25 11:05:51;;;;;;;1.13;1.10;;;26.60;99.90;;;;;;5031270;28;21271;-75
2023/09/25 11:08:21;;;;;;;1.10;1.10;;;26.80;99.90;;;;;;5024850;28;20288;-75
2023/09/25 11:10:49;;;;;;;2.47;1.42;;;26.70;99.90;;;;;;5026168;28;20269;-74
2023/09/25 11:13:17;;;;;;;1.40;1.30;;;26.60;99.90;;;;;;5027400;28;20210;-74
2023/09/25 11:15:46;;;;;;;1.08;1.08;;;26.70;99.90;;;;;;5029131;28;20552;-74
2023/09/25 11:18:14;;;;;;;2.35;1.20;;;26.90;99.90;;;;;;5032540;28;20260;-74
2023/09/25 11:20:43;;;;;;;5.03;1.38;;;27.00;99.90;;;;;;5031727;28;20206;-74
2023/09/25 11:23:15;;;;;;;2.45;1.00;;;27.10;99.90;;;;;;5032211;28;20212;-74
2023/09/25 11:25:50;;;;;;;1.38;1.27;;;27.30;99.90;;;;;;5030031;28;20237;-74
2023/09/25 11:28:20;;;;;;;1.27;1.20;;;27.70;99.90;;;;;;5019979;28;20680;-74
2023/09/25 11:30:48;;;;;;;3.88;1.58;;;27.80;99.70;;;;;;5029720;28;20210;-74
2023/09/25 11:33:18;;;;;;;1.48;1.38;;;28.00;99.90;;;;;;5032122;28;20293;-74
2023/09/25 11:35:47;;;;;;;2.35;1.25;;;28.30;99.50;;;;;;5031495;28;20721;-74
2023/09/25 11:38:18;;;;;;;3.40;1.50;;;28.40;98.40;;;;;;5031469;28;20210;-75
2023/09/25 11:40:46;;;;;;;1.60;1.35;;;28.40;97.50;;;;;;5023083;28;20739;-74
2023/09/25 11:43:14;;;;;;;1.50;1.40;;;28.40;96.40;;;;;;5031622;28;20672;-74
2023/09/25 11:45:42;;;;;;;2.47;1.48;;;28.50;96.10;;;;;;5031909;28;20210;-73
2023/09/25 11:48:10;;;;;;;1.80;1.35;;;28.80;95.90;;;;;;5031526;28;20217;-74
2023/09/25 11:50:39;;;;;;;1.65;1.27;;;29.00;96.90;;;;;;5029652;28;20238;-74
2023/09/25 11:53:07;;;;;;;4.03;1.20;;;28.80;96.80;;;;;;5025774;28;20233;-74
2023/09/25 11:55:36;;;;;;;1.65;1.35;;;28.90;96.70;;;;;;5027132;28;20683;-74
2023/09/25 11:58:07;;;;;;;1.42;1.42;;;29.00;95.60;;;;;;5024253;28;20708;-74
2023/09/25 12:00:35;;;;;;;1.58;1.25;;;28.90;94.80;;;;;;5026992;28;20210;-74
2023/09/25 12:03:07;;;;;;;3.85;1.30;;;28.90;96.50;;;;;;5031215;28;20230;-74
2023/09/25 12:05:36;;;;;;;2.63;1.35;;;29.00;94.60;;;;;;5031295;28;20224;-74
2023/09/25 12:08:06;;;;;;;1.25;1.05;;;29.00;95.10;;;;;;5031230;28;20205;-74
2023/09/25 12:10:37;;;;;;;1.38;1.23;;;29.00;94.20;;;;;;5031116;28;20297;-74
2023/09/25 12:13:06;;;;;;;1.40;1.30;;;29.10;95.80;;;;;;5031155;28;20205;-74
2023/09/25 12:15:35;;;;;;;1.45;1.35;;;29.30;94.90;;;;;;5031851;28;20552;-74
2023/09/25 12:18:04;;;;;;;2.88;1.33;;;29.50;95.50;;;;;;5031370;28;20633;-74
2023/09/25 12:20:32;;;;;;;1.90;1.00;;;29.70;94.10;;;;;;5015029;28;20216;-74
2023/09/25 12:23:00;;;;;;;1.27;1.27;;;29.70;93.50;;;;;;5026815;28;20234;-74
2023/09/25 12:25:29;;;;;;;1.55;1.45;;;29.80;94.00;;;;;;5031698;28;20315;-74
2023/09/25 12:28:06;;;;;;;3.03;1.50;;;29.70;92.80;;;;;;5031524;28;20206;-75
2023/09/25 12:30:35;;;;;;;1.85;1.35;;;29.80;92.10;;;;;;5024149;28;20221;-74
2023/09/25 12:33:05;;;;;;;2.28;1.23;;;29.80;92.20;;;;;;5031125;28;20206;-74
2023/09/25 12:35:33;;;;;;;3.65;1.52;;;29.90;92.20;;;;;;5024486;28;20206;-74
2023/09/25 12:38:01;;;;;;;3.50;1.20;;;29.90;92.80;;;;;;5029675;28;20206;-74
2023/09/25 12:40:29;;;;;;;4.95;1.35;;;30.00;91.30;;;;;;5025282;28;20221;-75
2023/09/25 12:42:58;;;;;;;2.65;1.27;;;30.10;91.90;;;;;;5035305;28;20222;-77
2023/09/25 12:45:27;;;;;;;2.35;1.08;;;30.40;90.70;;;;;;5027452;28;20206;-77
2023/09/25 12:47:55;;;;;;;1.52;1.42;;;30.30;91.00;;;;;;5035449;28;20209;-77
2023/09/25 12:50:23;;;;;;;1.48;1.38;;;30.10;90.90;;;;;;5035152;28;20210;-77
2023/09/25 12:52:51;;;;;;;2.20;1.15;;;29.90;91.70;;;;;;5034835;28;20205;-77
2023/09/25 12:55:19;;;;;;;2.30;1.27;;;29.60;90.90;;;;;;5035608;28;20210;-77